Caledonia, WI

11:33 PM CST on January 27, 2015 (GMT -0600)
27th And Ryan Road | Change Station
CLOSE
Current Station
Personal Weather Station
Location: Oak Creek, WI
Elevation: 720 ft
Nearby Weather Stations

Elev 720 ft 42.87 °N, 87.95 °W | Updated 25 seconds ago

Overcast
Overcast
28.0 °F
Feels Like 28 °F
N
0.0
Wind Variable Wind from NNE
Gusts 5.0 mph

Today
High -- | Low -- °F
--% Chance of Precip.
Yesterday
High -- | Low -- °F
Precip. -- in
7:11 AM 4:57 PM
First Quarter, 61% visible
Pressure 30.30 in
Visibility 10.0 miles
Clouds Overcast 2300 ft
Windchill 28 °F
Dew Point 22 °F
Humidity 77%
Rainfall 0.00 in
Snow Depth Not available.
UV 0.0 out of 12
Pollen .10 out of 12
Air Quality Not available.
Flu Activity Not available.
METAR KRAC 280453Z AUTO 00000KT 10SM OVC023 M03/M07 A3027 RMK AO2 SLP259 T10281072

More Conditions Fewer Conditions

Pressure 30.30 in
Visibility 10.0 miles
Clouds Overcast 2300 ft
Windchill 28 °F
Dew Point 22 °F
Humidity 77%
Rainfall 0.00 in
Snow Depth Not available.
UV 0.0 out of 12
Pollen .10 out of 12
Air Quality Not available.
Flu Activity Not available.
METAR KRAC 280453Z AUTO 00000KT 10SM OVC023 M03/M07 A3027 RMK AO2 SLP259 T10281072

More Conditions Fewer Conditions

10-Day Weather Forecast

Almanac

Astronomy

Jan. 27, 2015 Rise Set
Actual Time
Civil Twilight
Nautical Twilight
Astronomical Twilight
Moon
Length of Visible Light
Length of Day
Tomorrow will be .
, % of the Moon is Illuminated

Today's Extremes

State Highs State Lows

Community

WunderPhotos

Upload Photos

1,791,103 photos uploaded!

WunderBlogs® & News

Nearby

Air Quality

  Air Quality AQ Index Pollutant
Not available.

Snow Depth

Station Depth Elevation

Earthquake Activity

City Distance Mag. Time & Date
Minimum magnitude displayed is 2.5.

Coastal Water Temperatures

Place Temperature

Nearby Weather Stations